Aviation Digital Data Service (ADDS)

Output produced by METARs form (1801 UTC 21 August 2014)
found at http://aviationweather.gov/adds/metars/
 
KAEX 211739Z 2118/2218 20007KT P6SM VCTS SCT030CB BKN200 
     FM220000 VRB03KT P6SM SCT200 
     FM220600 20003KT 3SM BR BKN200 
     FM221400 VRB04KT P6SM SCT200